Stations météo

réclame
Mon MeteoGroup
Chateau Chinon, France (7270): Température de l'air & dewpoint: 04.12.2019 07:00:00 - 10.12.2019 07:00:00 (CET)Chateau Chinon, France (7270): Vitesse du vent & gusts: 04.12.2019 07:00:00 - 10.12.2019 07:00:00 (CET)Chateau Chinon, France (7270): Direction du vent: 04.12.2019 07:00:00 - 10.12.2019 07:00:00 (CET)Chateau Chinon, France (7270): Quantités de précipitations: 04.12.2019 07:00:00 - 10.12.2019 07:00:00 (CET)
Date & Time tt [°C] td [°C] ff [km/h] ff [knt] fx [km/h] fx [knt] dd rr [mm]
10.12.2019 07:00:00 - - - - - - - -
10.12.2019 06:00:00 -0,8 -0,9 4 2 9 5 E 0,0
10.12.2019 05:00:00 -0,5 -0,9 4 2 11 6 N 0,0
10.12.2019 04:00:00 -0,5 -1,1 4 2 9 5 NNW 0,0
10.12.2019 03:00:00 0,2 -0,4 2 1 16 9 W 0,0
10.12.2019 02:00:00 1,2 -0,1 5 3 28 15 WNW 0,0
10.12.2019 01:00:00 1,6 0,1 8 4 29 16 NW -
10.12.2019 00:00:00 1,6 0,3 8 4 26 14 NW 0,0
09.12.2019 23:00:00 1,8 0,8 8 4 29 16 NW 0,0
09.12.2019 22:00:00 1,8 1,2 9 5 29 16 WNW 0,0
09.12.2019 21:00:00 2,3 1,9 13 7 35 19 WNW 0,0
09.12.2019 20:00:00 2,7 2,6 9 5 31 17 WNW 0,0
09.12.2019 19:00:00 3,1 3,0 5 3 31 17 WNW -
09.12.2019 18:00:00 3,0 2,7 11 6 54 29 WNW 0,8
09.12.2019 17:00:00 3,6 3,5 8 4 37 20 WNW 0,4
09.12.2019 16:00:00 4,0 3,7 8 4 34 18 WNW 0,0
09.12.2019 15:00:00 4,2 4,1 8 4 41 22 WNW 0,8
09.12.2019 14:00:00 4,8 4,8 5 3 31 17 W 2,0
09.12.2019 13:00:00 4,8 4,8 8 4 42 23 NW -
09.12.2019 12:00:00 4,7 4,7 8 4 42 23 NNW 0,4
09.12.2019 11:00:00 4,6 4,6 8 4 42 23 NW 1,0
09.12.2019 10:00:00 4,6 4,6 8 4 44 24 NNW 2,0
09.12.2019 09:00:00 4,4 4,4 5 3 46 25 NW 2,0
09.12.2019 08:00:00 4,3 4,2 13 7 54 29 W 0,2
09.12.2019 07:00:00 4,1 3,8 13 7 63 34 W -
09.12.2019 06:00:00 4,4 4,3 11 6 42 23 W 0,0
09.12.2019 05:00:00 4,2 4,2 8 4 46 25 WNW 0,4
09.12.2019 04:00:00 3,2 2,6 9 5 48 26 WNW 2,0
09.12.2019 03:00:00 4,5 4,4 9 5 39 21 W 0,0
09.12.2019 02:00:00 4,9 4,9 8 4 50 27 W 2,0
09.12.2019 01:00:00 4,9 4,6 8 4 61 33 WNW -
09.12.2019 00:00:00 5,3 4,9 11 6 50 27 W 0,0
08.12.2019 23:00:00 5,3 5,0 8 4 34 18 WNW 0,0
08.12.2019 22:00:00 5,6 5,3 8 4 29 16 NW 0,0
08.12.2019 21:00:00 6,3 6,2 4 2 34 18 NNW 0,0
08.12.2019 20:00:00 7,2 7,1 8 4 37 20 NW 0,2
08.12.2019 19:00:00 8,4 8,4 9 5 52 28 W -
08.12.2019 18:00:00 8,1 8,0 15 8 54 29 WSW 0,6
08.12.2019 17:00:00 8,1 8,0 18 10 68 37 WSW 0,4
08.12.2019 16:00:00 8,1 8,0 29 16 68 37 SW 2,0
08.12.2019 15:00:00 7,7 7,3 24 13 63 34 SSW 2,0
08.12.2019 14:00:00 7,8 7,0 22 12 54 29 SSW 3,0
08.12.2019 13:00:00 8,4 6,5 24 13 57 31 SW -
08.12.2019 12:00:00 8,3 6,6 21 11 54 29 SW 0,0
08.12.2019 11:00:00 7,9 6,5 16 9 54 29 WSW 0,0
08.12.2019 10:00:00 7,2 6,6 15 8 55 30 SW 0,0
08.12.2019 09:00:00 7,3 6,2 16 9 54 29 WSW 0,0
08.12.2019 08:00:00 7,1 6,4 18 10 55 30 SW 0,0
08.12.2019 07:00:00 7,0 6,7 15 8 55 30 WSW -
08.12.2019 06:00:00 6,9 6,9 15 8 50 27 WSW 0,0
08.12.2019 05:00:00 6,9 6,9 13 7 52 28 WSW 0,2
08.12.2019 04:00:00 6,7 6,7 8 4 39 21 W 0,0
08.12.2019 03:00:00 6,8 6,8 11 6 41 22 W 0,0
08.12.2019 02:00:00 6,5 6,5 8 4 34 18 W 0,0
08.12.2019 01:00:00 6,6 6,6 8 4 31 17 WSW -
08.12.2019 00:00:00 6,6 6,6 9 5 28 15 SW 0,0
07.12.2019 23:00:00 6,8 6,8 5 3 22 12 W 0,0
07.12.2019 22:00:00 6,8 6,8 4 2 26 14 W 0,0
07.12.2019 21:00:00 6,5 6,5 4 2 22 12 WNW 0,0
07.12.2019 20:00:00 6,6 6,6 4 2 18 10 WNW 0,2
07.12.2019 19:00:00 6,5 6,5 4 2 15 8 WNW -
07.12.2019 18:00:00 6,6 6,6 2 1 16 9 NW 0,0
07.12.2019 17:00:00 6,3 6,3 2 1 16 9 W 0,0
07.12.2019 16:00:00 6,8 6,8 4 2 28 15 NW 0,0
07.12.2019 15:00:00 7,0 7,0 8 4 26 14 W 0,0
07.12.2019 14:00:00 6,8 6,8 4 2 24 13 WNW 0,4
07.12.2019 13:00:00 6,7 6,7 4 2 22 12 WNW -
07.12.2019 12:00:00 6,9 6,9 5 3 24 13 W 0,0
07.12.2019 11:00:00 6,4 6,4 4 2 34 18 WNW 0,0
07.12.2019 10:00:00 6,1 6,1 5 3 26 14 W 0,0
07.12.2019 09:00:00 5,8 5,8 4 2 24 13 WNW 0,6
07.12.2019 08:00:00 5,7 5,7 4 2 21 11 WNW 0,2
07.12.2019 07:00:00 5,7 5,7 4 2 28 15 NNW -
07.12.2019 06:00:00 5,6 5,6 8 4 31 17 W 0,2
07.12.2019 05:00:00 5,6 5,5 5 3 37 20 WNW 0,0
07.12.2019 04:00:00 5,4 5,3 8 4 35 19 W 0,6
07.12.2019 03:00:00 5,3 5,2 8 4 35 19 W 0,8
07.12.2019 02:00:00 5,0 4,7 5 3 39 21 W 0,8
07.12.2019 01:00:00 5,5 4,1 9 5 54 29 W -
07.12.2019 00:00:00 6,4 2,8 9 5 42 23 W 0,0
06.12.2019 23:00:00 6,7 3,1 11 6 41 22 W 0,0
06.12.2019 22:00:00 6,5 3,5 9 5 46 25 W 0,0
06.12.2019 21:00:00 6,4 4,4 9 5 46 25 W 0,2
06.12.2019 20:00:00 5,4 4,0 8 4 26 14 W 0,0
06.12.2019 19:00:00 4,5 2,5 5 3 21 11 W -
06.12.2019 18:00:00 4,2 2,2 5 3 21 11 W 0,0
06.12.2019 17:00:00 4,2 1,6 4 2 29 16 W 0,0
06.12.2019 16:00:00 6,4 2,8 5 3 35 19 WSW 0,0
06.12.2019 15:00:00 6,4 2,8 4 2 24 13 WSW 0,0
06.12.2019 14:00:00 6,2 2,5 8 4 24 13 W 0,0
06.12.2019 13:00:00 6,7 1,6 8 4 39 21 W -
06.12.2019 12:00:00 7,1 1,8 9 5 34 18 W 0,0
06.12.2019 11:00:00 6,6 1,5 9 5 34 18 WSW 0,0
06.12.2019 10:00:00 5,0 1,8 11 6 34 18 SW 0,0
06.12.2019 09:00:00 4,1 2,9 11 6 29 16 SW 0,0
06.12.2019 08:00:00 3,0 2,4 5 3 24 13 WSW 0,0
06.12.2019 07:00:00 3,0 2,6 8 4 22 12 WSW -
06.12.2019 06:00:00 3,2 2,3 9 5 26 14 SW 0,0
06.12.2019 05:00:00 2,1 1,5 8 4 21 11 SSE 0,0
06.12.2019 04:00:00 2,5 2,2 4 2 13 7 WSW 0,0
06.12.2019 03:00:00 3,1 2,8 4 2 11 6 SSW 0,0
06.12.2019 02:00:00 2,9 2,5 5 3 11 6 S 0,0
06.12.2019 01:00:00 2,6 2,0 4 2 13 7 SSW -
06.12.2019 00:00:00 2,5 0,9 5 3 18 10 SSW 0,0
05.12.2019 23:00:00 2,1 -0,2 5 3 18 10 WSW 0,0
05.12.2019 22:00:00 3,0 -4,7 8 4 16 9 WSW 0,0
05.12.2019 21:00:00 2,6 -8,5 9 5 15 8 SSW 0,0
05.12.2019 20:00:00 0,7 -3,0 8 4 11 6 SSE 0,0
05.12.2019 19:00:00 1,0 0,3 4 2 8 4 S -
05.12.2019 18:00:00 1,2 0,2 4 2 8 4 W 0,0
05.12.2019 17:00:00 2,4 0,9 4 2 8 4 W 0,0
05.12.2019 16:00:00 5,2 0,8 0 0 13 7 N 0,0
05.12.2019 15:00:00 6,2 0,7 4 2 15 8 W 0,0
05.12.2019 14:00:00 6,9 0,8 4 2 13 7 W 0,0
05.12.2019 13:00:00 6,3 1,6 5 3 11 6 W -
05.12.2019 12:00:00 4,8 0,4 4 2 11 6 WSW 0,0
05.12.2019 11:00:00 5,2 -0,4 4 2 11 6 WSW 0,0
05.12.2019 10:00:00 3,0 1,0 5 3 15 8 SE 0,0
05.12.2019 09:00:00 1,3 1,0 4 2 8 4 S 0,0
05.12.2019 08:00:00 0,6 -0,1 2 1 8 4 W 0,0
05.12.2019 07:00:00 1,7 0,7 4 2 8 4 WSW -
05.12.2019 06:00:00 1,2 0,3 2 1 9 5 W 0,0
05.12.2019 05:00:00 1,2 0,2 2 1 11 6 W 0,0
05.12.2019 04:00:00 1,0 -0,2 4 2 11 6 W 0,0
05.12.2019 03:00:00 1,4 0,1 4 2 9 5 W 0,0
05.12.2019 02:00:00 2,7 0,4 4 2 9 5 W 0,0
05.12.2019 01:00:00 2,5 0,6 4 2 9 5 W -
05.12.2019 00:00:00 2,9 0,5 5 3 13 7 WSW 0,0
04.12.2019 23:00:00 2,5 0,4 4 2 5 3 W 0,0
04.12.2019 22:00:00 3,1 0,8 0 0 5 3 N 0,0
04.12.2019 21:00:00 3,2 0,6 2 1 15 8 W 0,0
04.12.2019 20:00:00 2,6 0,5 4 2 11 6 SSW 0,0
04.12.2019 19:00:00 2,7 0,6 4 2 9 5 SW -
04.12.2019 18:00:00 3,4 0,6 4 2 8 4 W 0,0
04.12.2019 17:00:00 4,3 0,4 2 1 9 5 W 0,0
04.12.2019 16:00:00 6,7 1,4 4 2 13 7 SW 0,0
04.12.2019 15:00:00 7,5 2,0 4 2 15 8 WSW 0,0
04.12.2019 14:00:00 7,1 0,7 4 2 11 6 WSW 0,0
04.12.2019 13:00:00 7,0 1,5 4 2 9 5 SSW -
04.12.2019 12:00:00 5,0 -0,2 4 2 13 7 WSW 0,0
04.12.2019 11:00:00 5,6 0,8 4 2 16 9 SSW 0,0
04.12.2019 10:00:00 1,8 -1,1 9 5 18 10 SE 0,0
04.12.2019 09:00:00 -0,2 -1,9 4 2 18 10 SE 0,0
04.12.2019 08:00:00 -1,1 -2,7 9 5 21 11 SE 0,0
04.12.2019 07:00:00 -1,9 -3,3 9 5 18 10 ESE -

tt = Température de l'air
td = dewpoint
ff = Vitesse du vent
fx = gusts
dd = Direction du vent
rr = Quantités de précipitations

stations d'obs. à proximité